Verhalen, Texas
Current Conditions -  °F | °C
As of 1:35 AM on Wednesday 26 Nov 2014 (Local Time) from KPEQ Reporting Station
Clear Clear  
Wind Chill: 42°   Ceiling: Unl
Heat Index: 48°   Visibility: 10mi
Dew Point: 13°   Wind: 15mph
Humidity: 24%   Direction: 240°WSW
Pressure: 30.16"   Gusts: 21mph
Location:  31.4465°N, 103.713°W
Report Text: KPEQ 260735Z AUTO 24013G18KT 10SM CLR 09/M11 A3016 RMK AO2 T00881108
Loading
Personal Weather Stations






























Interactive Weather Map New forecast layout! Learn more

10-Day Weather Forecast

Advertisements
Track Severe Weather on mobile